Orchard City, Colorado
Current Conditions -  °F | °C
As of 3:55 PM on Tuesday 27 Jan 2015 (Local Time) from KAJZ Reporting Station
Overcast Overcast  
Wind Chill: 56°   Ceiling: 10000
Heat Index: 56°   Visibility: 10mi
Dew Point: 27°   Wind: 6mph
Humidity: 33%   Direction: 250°WSW
Pressure: 30.22"   Gusts: NA
Location:  38.7882°N, 107.986°W
Report Text: KAJZ 272255Z AUTO 25005KT 10SM OVC100 13/M03 A3022 RMK AO2 T01311030
Loading
Personal Weather Stations






























Interactive Weather Map New forecast layout! Learn more

10-Day Weather Forecast

Advertisements
Track Severe Weather on mobile